createdAt,value
2023-03-10T00:00:49.807Z,71.25
2023-03-10T00:03:17.067Z,73.65
2023-03-10T00:05:44.734Z,77.60
2023-03-10T00:08:12.045Z,54.35
2023-03-10T00:10:39.443Z,65.70
2023-03-10T00:13:06.744Z,82.70
2023-03-10T00:15:34.029Z,60.85
2023-03-10T00:18:01.338Z,67.30
2023-03-10T00:20:28.679Z,76.75
2023-03-10T00:22:55.948Z,60.88
2023-03-10T00:25:24.710Z,57.30
2023-03-10T00:27:52.606Z,51.10
2023-03-10T00:30:20.054Z,52.40
2023-03-10T00:32:47.776Z,55.35
2023-03-10T00:35:15.315Z,69.95
2023-03-10T00:37:42.634Z,67.55
2023-03-10T00:40:14.272Z,45.33
2023-03-10T00:42:42.018Z,47.20
2023-03-10T00:45:09.796Z,69.35
2023-03-10T00:47:37.077Z,50.92
2023-03-10T00:50:04.744Z,53.17
2023-03-10T00:52:33.143Z,47.20
2023-03-10T00:55:00.514Z,74.57
2023-03-10T00:57:27.870Z,68.75
2023-03-10T00:59:55.099Z,52.15
2023-03-10T01:02:22.471Z,58.38
2023-03-10T01:04:50.101Z,49.92
2023-03-10T01:07:17.482Z,64.22
2023-03-10T01:09:45.210Z,71.20
2023-03-10T01:12:12.519Z,72.95
2023-03-10T01:14:40.451Z,69.50
2023-03-10T01:17:07.912Z,49.45
2023-03-10T01:19:35.223Z,46.83
2023-03-10T01:22:02.522Z,67.80
2023-03-10T01:24:29.828Z,53.85
2023-03-10T01:26:57.125Z,54.13
2023-03-10T01:29:24.414Z,83.38
2023-03-10T01:31:51.694Z,47.25
2023-03-10T01:34:18.959Z,50.05
2023-03-10T01:36:46.257Z,68.28
2023-03-10T01:39:13.616Z,54.15
2023-03-10T01:41:41.368Z,52.30
2023-03-10T01:44:15.860Z,80.10
2023-03-10T01:46:48.742Z,94.60
2023-03-10T01:49:41.136Z,57.35
2023-03-10T01:52:18.571Z,51.83
2023-03-10T01:54:54.707Z,66.28
2023-03-10T01:57:25.251Z,72.28
2023-03-10T01:59:52.814Z,60.25
2023-03-10T02:02:20.172Z,57.58
2023-03-10T02:04:49.482Z,65.50
2023-03-10T02:07:19.761Z,56.58
2023-03-10T02:09:49.098Z,56.30
2023-03-10T02:12:16.818Z,54.75
2023-03-10T02:14:45.382Z,72.22
2023-03-10T02:17:17.067Z,69.82
2023-03-10T02:19:53.841Z,83.72
2023-03-10T02:22:21.412Z,68.57
2023-03-10T02:25:02.262Z,68.53
2023-03-10T02:27:35.636Z,75.95
2023-03-10T02:30:25.164Z,70.97
2023-03-10T02:32:56.238Z,88.28
2023-03-10T02:35:24.056Z,67.95
2023-03-10T02:37:51.492Z,90.63
2023-03-10T02:40:52.213Z,101.90
2023-03-10T02:43:35.307Z,104.53
2023-03-10T02:48:34.063Z,110.13
2023-03-10T02:51:03.602Z,89.55
2023-03-10T02:53:31.376Z,112.60
2023-03-10T02:55:59.866Z,111.70
2023-03-10T02:58:31.751Z,69.15
2023-03-10T03:00:59.790Z,82.03
2023-03-10T03:03:27.725Z,91.28
2023-03-10T03:05:55.056Z,95.18
2023-03-10T03:08:22.717Z,92.50
2023-03-10T03:10:50.094Z,98.82
2023-03-10T03:13:17.556Z,121.65
2023-03-10T03:15:44.889Z,85.25
2023-03-10T03:18:12.386Z,118.45
2023-03-10T03:20:42.711Z,88.65
2023-03-10T03:23:10.691Z,111.13
2023-03-10T03:25:40.243Z,113.63
2023-03-10T03:28:09.783Z,106.53
2023-03-10T03:30:37.738Z,113.25
2023-03-10T03:33:06.732Z,101.75
2023-03-10T03:35:36.126Z,93.20
2023-03-10T03:38:04.413Z,89.65
2023-03-10T03:40:35.855Z,132.30
2023-03-10T03:43:03.448Z,94.50
2023-03-10T03:45:32.220Z,92.65
2023-03-10T03:48:00.077Z,89.50
2023-03-10T03:50:27.799Z,130.88
2023-03-10T03:52:55.128Z,149.32
2023-03-10T03:55:22.491Z,99.20
2023-03-10T03:57:50.093Z,94.53
2023-03-10T04:00:23.998Z,85.63
2023-03-10T04:02:51.293Z,102.22
2023-03-10T04:05:18.937Z,116.85
2023-03-10T04:07:48.247Z,96.00
2023-03-10T04:10:18.565Z,83.90
2023-03-10T04:12:45.921Z,87.00
2023-03-10T04:15:13.441Z,106.88
2023-03-10T04:17:41.135Z,93.05
2023-03-10T04:20:09.602Z,101.78
2023-03-10T04:22:37.280Z,96.30
2023-03-10T04:25:06.041Z,84.35
2023-03-10T04:27:33.728Z,84.07
2023-03-10T04:30:01.116Z,125.55
2023-03-10T04:32:28.490Z,108.57
2023-03-10T04:34:55.790Z,112.50
2023-03-10T04:37:23.085Z,101.63
2023-03-10T04:39:50.475Z,125.20
2023-03-10T04:42:17.753Z,99.68
2023-03-10T04:44:45.100Z,111.75
2023-03-10T04:47:12.459Z,123.40
2023-03-10T04:49:48.793Z,107.72
2023-03-10T04:52:16.080Z,114.25
2023-03-10T04:54:43.313Z,118.13
2023-03-10T04:57:10.678Z,94.60
2023-03-10T04:59:38.000Z,88.70
2023-03-10T05:02:05.579Z,83.20
2023-03-10T05:04:33.078Z,81.45
2023-03-10T05:07:00.437Z,103.22
2023-03-10T05:09:27.786Z,85.10
2023-03-10T05:11:55.063Z,105.18
2023-03-10T05:14:22.331Z,75.13
2023-03-10T05:16:49.675Z,73.43
2023-03-10T05:19:17.248Z,68.80
2023-03-10T05:21:44.542Z,95.43
2023-03-10T05:24:14.863Z,78.10
2023-03-10T05:26:42.093Z,74.85
2023-03-10T05:29:09.355Z,73.18
2023-03-10T05:31:36.697Z,79.35
2023-03-10T05:34:04.004Z,60.13
2023-03-10T05:36:31.353Z,100.50
2023-03-10T05:38:58.684Z,80.40
2023-03-10T05:41:26.139Z,67.43
2023-03-10T05:43:53.512Z,65.30
2023-03-10T05:46:20.839Z,62.75
2023-03-10T05:48:48.123Z,54.15
2023-03-10T05:51:15.457Z,52.40
2023-03-10T05:53:43.167Z,59.55
2023-03-10T05:56:13.605Z,44.90
2023-03-10T05:58:40.954Z,62.40
2023-03-10T06:01:08.985Z,49.17
2023-03-10T06:03:36.901Z,48.90
2023-03-10T06:06:06.681Z,50.65
2023-03-10T06:08:34.721Z,53.40
2023-03-10T06:11:04.927Z,66.63
2023-03-10T06:13:32.755Z,49.33
2023-03-10T06:16:02.264Z,45.67
2023-03-10T06:18:30.055Z,53.20
2023-03-10T06:20:57.600Z,46.65
2023-03-10T06:23:26.031Z,43.83
2023-03-10T06:25:58.588Z,50.13
2023-03-10T06:28:26.399Z,43.80
2023-03-10T06:30:57.582Z,44.58
2023-03-10T06:33:25.529Z,44.58
2023-03-10T06:35:52.915Z,52.17
2023-03-10T06:38:20.840Z,53.05
2023-03-10T06:40:48.254Z,45.67
2023-03-10T06:43:18.895Z,69.82
2023-03-10T06:45:47.240Z,58.60
2023-03-10T06:48:15.511Z,48.38
2023-03-10T06:50:43.832Z,55.03
2023-03-10T06:53:12.242Z,47.00
2023-03-10T06:55:39.619Z,35.38
2023-03-10T06:58:07.208Z,44.20
2023-03-10T07:00:36.740Z,49.40
2023-03-10T07:03:04.264Z,54.50
2023-03-10T07:05:31.559Z,46.28
2023-03-10T07:07:58.903Z,44.47
2023-03-10T07:10:26.343Z,45.50
2023-03-10T07:12:56.711Z,47.65
2023-03-10T07:15:23.966Z,33.88
2023-03-10T07:17:51.327Z,41.03
2023-03-10T07:20:19.210Z,36.95
2023-03-10T07:22:46.590Z,39.35
2023-03-10T07:25:13.834Z,42.95
2023-03-10T07:27:41.224Z,34.88
2023-03-10T07:30:09.238Z,42.60
2023-03-10T07:32:36.981Z,38.70
2023-03-10T07:35:07.334Z,47.35
2023-03-10T07:37:38.831Z,41.60
2023-03-10T07:40:07.493Z,54.92
2023-03-10T07:42:35.376Z,44.00
2023-03-10T07:45:03.097Z,51.72
2023-03-10T07:47:30.530Z,46.65
2023-03-10T07:49:57.863Z,69.70
2023-03-10T07:52:25.158Z,52.90
2023-03-10T07:54:52.445Z,57.30
2023-03-10T07:57:19.937Z,75.75
2023-03-10T07:59:56.020Z,68.88
2023-03-10T08:02:23.460Z,64.85
2023-03-10T08:04:56.278Z,65.22
2023-03-10T08:09:53.643Z,81.72
2023-03-10T08:12:24.658Z,71.07
2023-03-10T08:14:53.027Z,69.90
2023-03-10T08:17:20.494Z,62.00
2023-03-10T08:19:48.368Z,61.95
2023-03-10T08:22:17.058Z,67.80
2023-03-10T08:24:47.318Z,79.70
2023-03-10T08:27:15.202Z,69.78
2023-03-10T08:29:42.580Z,80.78
2023-03-10T08:32:10.326Z,77.60
2023-03-10T08:34:37.704Z,77.50
2023-03-10T08:37:05.481Z,82.20
2023-03-10T08:39:32.872Z,90.50
2023-03-10T08:42:04.149Z,88.35
2023-03-10T08:44:31.595Z,97.63
2023-03-10T08:46:59.244Z,104.95
2023-03-10T08:49:26.538Z,98.38
2023-03-10T08:51:54.112Z,91.65
2023-03-10T08:54:22.683Z,92.90
2023-03-10T08:56:50.371Z,99.55
2023-03-10T08:59:18.386Z,119.72
2023-03-10T09:01:45.917Z,120.85
2023-03-10T09:04:13.317Z,107.30
2023-03-10T09:06:40.779Z,106.22
2023-03-10T09:09:10.245Z,92.72
2023-03-10T09:11:39.942Z,83.38
2023-03-10T09:14:08.840Z,83.40
2023-03-10T09:16:36.590Z,81.28
2023-03-10T09:19:04.154Z,76.20
2023-03-10T09:21:33.726Z,70.75
2023-03-10T09:24:02.083Z,72.70
2023-03-10T09:26:29.497Z,67.05
2023-03-10T09:28:57.417Z,80.05
2023-03-10T09:31:35.274Z,63.70
2023-03-10T09:34:03.411Z,54.50
2023-03-10T09:36:33.815Z,59.80
2023-03-10T09:39:02.499Z,57.55
2023-03-10T09:41:56.634Z,63.58
2023-03-10T09:44:30.920Z,57.50
2023-03-10T09:47:10.879Z,48.58
2023-03-10T09:50:07.721Z,42.50
2023-03-10T09:52:46.813Z,41.83
2023-03-10T09:55:25.645Z,44.10
2023-03-10T09:57:55.209Z,36.05
2023-03-10T10:00:36.030Z,37.67
2023-03-10T10:03:09.161Z,33.08
2023-03-10T10:05:38.864Z,32.65
2023-03-10T10:08:28.667Z,36.35
2023-03-10T10:11:00.574Z,30.08
2023-03-10T10:13:30.665Z,30.65
2023-03-10T10:16:28.248Z,31.77
2023-03-10T10:19:07.689Z,36.20
2023-03-10T10:21:54.058Z,31.55
2023-03-10T10:24:21.837Z,29.75
2023-03-10T10:26:49.481Z,27.95
2023-03-10T10:29:23.720Z,23.75
2023-03-10T10:32:12.561Z,22.95
2023-03-10T10:34:45.049Z,21.40
2023-03-10T10:37:38.806Z,27.13
2023-03-10T10:40:23.987Z,19.73
2023-03-10T10:42:56.601Z,20.08
2023-03-10T10:45:34.480Z,18.95
2023-03-10T10:48:02.270Z,19.15
2023-03-10T10:50:31.705Z,14.80
2023-03-10T10:53:15.526Z,13.63
2023-03-10T10:55:44.560Z,13.50
2023-03-10T10:59:02.859Z,14.10
2023-03-10T11:01:47.361Z,12.43
2023-03-10T11:04:17.357Z,9.27
2023-03-10T11:06:45.201Z,11.70
2023-03-10T11:09:18.463Z,11.07
2023-03-10T11:12:20.244Z,9.82
2023-03-10T11:14:54.714Z,11.05
2023-03-10T11:17:33.290Z,11.85
2023-03-10T11:20:06.026Z,8.15
2023-03-10T11:23:10.605Z,8.82
2023-03-10T11:25:52.292Z,10.40
2023-03-10T11:28:22.428Z,7.85
2023-03-10T11:30:58.982Z,9.35
2023-03-10T11:33:34.137Z,7.95
2023-03-10T11:36:27.176Z,8.55
2023-03-10T11:39:13.524Z,7.00
2023-03-10T11:41:46.063Z,7.68
2023-03-10T11:44:19.237Z,7.63
2023-03-10T11:46:55.606Z,6.85
2023-03-10T11:49:27.372Z,5.93
2023-03-10T11:52:00.448Z,5.43
2023-03-10T11:54:39.612Z,5.30
2023-03-10T11:57:15.625Z,7.45
2023-03-10T11:59:58.062Z,5.57
2023-03-10T12:02:42.286Z,5.05
2023-03-10T12:05:24.057Z,6.93
2023-03-10T12:07:54.129Z,7.00
2023-03-10T12:10:23.015Z,6.78
2023-03-10T12:12:53.578Z,5.45
2023-03-10T12:15:29.121Z,6.60
2023-03-10T12:17:56.370Z,6.13
2023-03-10T12:20:27.811Z,7.10
2023-03-10T12:22:58.771Z,5.85
2023-03-10T12:25:33.207Z,8.10
2023-03-10T12:28:19.570Z,8.82
2023-03-10T12:30:57.594Z,8.57
2023-03-10T12:33:31.206Z,8.73
2023-03-10T12:36:03.570Z,8.05
2023-03-10T12:38:46.622Z,9.65
2023-03-10T12:41:47.304Z,9.85
2023-03-10T12:44:43.863Z,8.60
2023-03-10T12:47:37.951Z,8.60
2023-03-10T12:50:36.053Z,10.35
2023-03-10T12:53:11.388Z,9.02
2023-03-10T12:55:42.023Z,10.18
2023-03-10T12:58:22.610Z,9.35
2023-03-10T13:00:51.333Z,9.18
2023-03-10T13:03:45.049Z,9.00
2023-03-10T13:06:15.114Z,7.97
2023-03-10T13:08:48.200Z,10.25
2023-03-10T13:11:30.304Z,12.73
2023-03-10T13:14:01.739Z,12.82
2023-03-10T13:16:29.114Z,12.20
2023-03-10T13:18:56.508Z,11.30
2023-03-10T13:21:24.983Z,10.10
2023-03-10T13:23:52.336Z,11.95
2023-03-10T13:26:19.871Z,12.93
2023-03-10T13:29:19.449Z,11.48
2023-03-10T13:31:54.512Z,12.55
2023-03-10T13:34:23.612Z,12.65
2023-03-10T13:36:50.915Z,12.73
2023-03-10T13:39:24.636Z,11.68
2023-03-10T13:41:55.441Z,11.45
2023-03-10T13:44:26.362Z,13.68
2023-03-10T13:47:02.143Z,15.18
2023-03-10T13:49:34.696Z,15.85
2023-03-10T13:52:08.159Z,17.65
2023-03-10T13:54:40.409Z,15.63
2023-03-10T13:57:29.022Z,17.50
2023-03-10T13:59:58.058Z,19.85
2023-03-10T14:02:32.357Z,23.08
2023-03-10T14:05:00.932Z,25.05
2023-03-10T14:07:30.741Z,22.17
2023-03-10T14:10:08.789Z,26.45
2023-03-10T14:12:40.662Z,31.65
2023-03-10T14:15:20.395Z,25.10
2023-03-10T14:17:49.746Z,30.35
2023-03-10T14:20:30.645Z,24.00
2023-03-10T14:22:58.284Z,24.45
2023-03-10T14:25:26.257Z,23.65
2023-03-10T14:27:59.640Z,24.70
2023-03-10T14:30:29.490Z,21.13
2023-03-10T14:32:58.604Z,23.08
2023-03-10T14:35:27.422Z,21.15
2023-03-10T14:37:54.756Z,21.90
2023-03-10T14:40:24.152Z,22.02
2023-03-10T14:42:53.226Z,22.50
2023-03-10T14:45:29.148Z,27.17
2023-03-10T14:47:58.233Z,22.27
2023-03-10T14:50:27.154Z,26.40
2023-03-10T14:52:54.596Z,29.67
2023-03-10T14:55:22.178Z,28.38
2023-03-10T14:57:53.874Z,24.85
2023-03-10T15:00:22.066Z,22.00
2023-03-10T15:02:49.379Z,23.80
2023-03-10T15:05:18.238Z,21.75
2023-03-10T15:07:45.798Z,20.55
2023-03-10T15:10:13.888Z,21.02
2023-03-10T15:12:42.712Z,18.55
2023-03-10T15:15:23.006Z,23.73
2023-03-10T15:17:50.691Z,20.65
2023-03-10T15:20:19.844Z,19.70
2023-03-10T15:22:47.971Z,23.95
2023-03-10T15:25:16.915Z,21.13
2023-03-10T15:27:45.762Z,18.83
2023-03-10T15:30:28.917Z,20.77
2023-03-10T15:32:56.556Z,25.08
2023-03-10T15:35:24.040Z,24.60
2023-03-10T15:37:52.192Z,28.95
2023-03-10T15:40:25.852Z,29.08
2023-03-10T15:42:55.783Z,20.83
2023-03-10T15:45:23.700Z,15.05
2023-03-10T15:47:51.096Z,15.23
2023-03-10T15:50:20.426Z,8.82
2023-03-10T15:52:55.790Z,7.88
2023-03-10T15:55:23.564Z,5.43
2023-03-10T15:57:51.434Z,4.20
2023-03-10T16:00:20.952Z,6.82
2023-03-10T16:02:48.853Z,7.22
2023-03-10T16:05:17.173Z,8.73
2023-03-10T16:07:45.315Z,6.65
2023-03-10T16:10:14.686Z,6.18
2023-03-10T16:12:42.441Z,10.00
2023-03-10T16:15:11.755Z,6.97
2023-03-10T16:17:39.233Z,9.80
2023-03-10T16:20:11.984Z,7.30
2023-03-10T16:22:40.993Z,7.97
2023-03-10T16:25:18.353Z,7.15
2023-03-10T16:27:46.379Z,7.80
2023-03-10T16:30:18.098Z,10.25
2023-03-10T16:32:46.996Z,9.40
2023-03-10T16:35:15.028Z,8.50
2023-03-10T16:37:42.783Z,5.55
2023-03-10T16:40:11.136Z,11.38
2023-03-10T16:42:39.014Z,9.23
2023-03-10T16:45:07.501Z,7.97
2023-03-10T16:47:34.960Z,6.50
2023-03-10T16:50:02.347Z,4.13
2023-03-10T16:52:36.668Z,7.97
2023-03-10T16:55:05.498Z,5.63
2023-03-10T16:57:32.942Z,8.05
2023-03-10T17:00:00.430Z,10.65
2023-03-10T17:02:27.827Z,7.78
2023-03-10T17:04:55.357Z,7.93
2023-03-10T17:07:27.172Z,12.13
2023-03-10T17:09:54.819Z,5.75
2023-03-10T17:12:22.653Z,5.50
2023-03-10T17:14:50.894Z,9.32
2023-03-10T17:17:37.798Z,5.75
2023-03-10T17:20:10.124Z,5.60
2023-03-10T17:22:38.824Z,7.47
2023-03-10T17:25:09.549Z,6.82
2023-03-10T17:27:42.431Z,6.85
2023-03-10T17:30:15.565Z,6.00
2023-03-10T17:32:47.632Z,6.73
2023-03-10T17:35:19.063Z,11.30
2023-03-10T17:37:49.729Z,9.00
2023-03-10T17:40:21.512Z,6.13
2023-03-10T17:42:49.087Z,8.60
2023-03-10T17:45:16.394Z,9.27
2023-03-10T17:47:43.812Z,11.48
2023-03-10T17:50:11.779Z,11.48
2023-03-10T17:52:39.241Z,13.85
2023-03-10T17:55:07.328Z,12.93
2023-03-10T17:57:34.708Z,11.25
2023-03-10T18:00:02.084Z,15.82
2023-03-10T18:02:29.595Z,9.88
2023-03-10T18:04:57.417Z,11.13
2023-03-10T18:07:24.795Z,9.80
2023-03-10T18:09:52.321Z,10.80
2023-03-10T18:12:19.779Z,10.98
2023-03-10T18:14:47.195Z,8.35
2023-03-10T18:17:14.604Z,9.15
2023-03-10T18:19:42.049Z,6.22
2023-03-10T18:22:09.358Z,8.43
2023-03-10T18:24:37.740Z,11.65
2023-03-10T18:27:05.099Z,14.35
2023-03-10T18:29:32.449Z,8.80
2023-03-10T18:31:59.837Z,10.07
2023-03-10T18:34:27.198Z,9.90
2023-03-10T18:36:54.885Z,9.63
2023-03-10T18:39:22.295Z,12.82
2023-03-10T18:41:49.628Z,9.95
2023-03-10T18:44:16.962Z,11.93
2023-03-10T18:46:44.338Z,10.88
2023-03-10T18:49:11.779Z,9.95
2023-03-10T18:51:39.138Z,13.40
2023-03-10T18:54:07.074Z,18.75
2023-03-10T18:56:34.759Z,18.05
2023-03-10T18:59:02.225Z,16.27
2023-03-10T19:01:29.657Z,20.58
2023-03-10T19:03:57.155Z,18.80
2023-03-10T19:06:29.483Z,18.92
2023-03-10T19:08:56.875Z,19.23
2023-03-10T19:11:24.517Z,15.80
2023-03-10T19:13:52.558Z,11.60
2023-03-10T19:16:21.287Z,16.05
2023-03-10T19:18:48.838Z,12.98
2023-03-10T19:21:16.166Z,18.65
2023-03-10T19:23:45.586Z,20.92
2023-03-10T19:26:13.422Z,13.15
2023-03-10T19:28:40.974Z,10.50
2023-03-10T19:31:12.968Z,13.05
2023-03-10T19:33:40.420Z,12.13
2023-03-10T19:36:11.804Z,12.23
2023-03-10T19:38:41.039Z,17.80
2023-03-10T19:41:13.635Z,11.77
2023-03-10T19:43:43.571Z,16.38
2023-03-10T19:46:12.900Z,13.30
2023-03-10T19:48:40.963Z,14.45
2023-03-10T19:51:08.977Z,18.75
2023-03-10T19:53:36.573Z,22.92
2023-03-10T19:56:06.885Z,20.02
2023-03-10T19:58:34.290Z,17.70
2023-03-10T20:01:01.828Z,16.02
2023-03-10T20:03:31.031Z,16.17
2023-03-10T20:05:58.539Z,12.57
2023-03-10T20:08:26.137Z,22.90
2023-03-10T20:10:53.548Z,17.80
2023-03-10T20:13:21.249Z,11.55
2023-03-10T20:15:48.759Z,13.18
2023-03-10T20:18:18.474Z,12.77
2023-03-10T20:20:46.040Z,11.85
2023-03-10T20:23:13.882Z,15.02
2023-03-10T20:25:41.407Z,16.45
2023-03-10T20:28:09.055Z,13.73
2023-03-10T20:30:37.470Z,16.17
2023-03-10T20:33:05.188Z,12.73
2023-03-10T20:35:33.496Z,9.57
2023-03-10T20:38:02.294Z,13.57
2023-03-10T20:40:30.921Z,14.82
2023-03-10T20:43:01.806Z,11.63
2023-03-10T20:45:32.688Z,13.38
2023-03-10T20:48:00.180Z,10.95
2023-03-10T20:50:27.727Z,10.98
2023-03-10T20:52:55.084Z,12.50
2023-03-10T20:55:24.746Z,14.13
2023-03-10T20:57:54.354Z,13.77
2023-03-10T21:00:24.629Z,17.88
2023-03-10T21:02:53.376Z,6.60
2023-03-10T21:05:21.648Z,7.05
2023-03-10T21:07:49.957Z,12.15
2023-03-10T21:10:18.131Z,9.43
2023-03-10T21:12:47.971Z,12.02
2023-03-10T21:15:19.661Z,11.55
2023-03-10T21:17:47.625Z,11.88
2023-03-10T21:20:21.154Z,14.25
2023-03-10T21:22:48.574Z,14.55
2023-03-10T21:25:23.072Z,14.30
2023-03-10T21:27:53.278Z,18.60
2023-03-10T21:30:23.568Z,18.77
2023-03-10T21:32:53.534Z,22.08
2023-03-10T21:35:21.149Z,15.85
2023-03-10T21:37:49.404Z,14.25
2023-03-10T21:40:21.081Z,14.52
2023-03-10T21:42:48.949Z,15.65
2023-03-10T21:45:21.431Z,9.80
2023-03-10T21:47:52.073Z,15.38
2023-03-10T21:50:20.133Z,10.60
2023-03-10T21:52:48.290Z,12.85
2023-03-10T21:55:23.933Z,14.45
2023-03-10T21:57:51.972Z,11.95
2023-03-10T22:00:23.185Z,14.05
2023-03-10T22:02:52.218Z,11.15
2023-03-10T22:05:23.077Z,9.07
2023-03-10T22:07:50.867Z,14.25
2023-03-10T22:10:18.740Z,9.60
2023-03-10T22:12:46.555Z,9.98
2023-03-10T22:15:18.547Z,9.77
2023-03-10T22:17:46.039Z,13.57
2023-03-10T22:20:21.147Z,8.38
2023-03-10T22:22:49.233Z,8.15
2023-03-10T22:25:17.156Z,10.32
2023-03-10T22:27:48.048Z,13.95
2023-03-10T22:30:15.717Z,10.73
2023-03-10T22:32:43.472Z,13.68
2023-03-10T22:35:10.844Z,14.48
2023-03-10T22:37:39.240Z,14.95
2023-03-10T22:40:10.227Z,16.83
2023-03-10T22:42:38.443Z,13.75
2023-03-10T22:45:21.604Z,16.98
2023-03-10T22:47:49.753Z,9.90
2023-03-10T22:50:20.610Z,14.38
2023-03-10T22:52:48.025Z,12.65
2023-03-10T22:55:17.734Z,13.27
2023-03-10T22:57:45.070Z,11.38
2023-03-10T23:00:21.141Z,11.77
2023-03-10T23:02:49.506Z,11.57
2023-03-10T23:05:17.353Z,11.93
2023-03-10T23:07:44.982Z,10.35
2023-03-10T23:10:33.524Z,12.20
2023-03-10T23:13:02.638Z,11.27
2023-03-10T23:15:33.568Z,20.42
2023-03-10T23:18:01.122Z,10.73
2023-03-10T23:20:32.526Z,10.68
2023-03-10T23:23:01.980Z,7.78
2023-03-10T23:25:33.048Z,13.88
2023-03-10T23:28:01.583Z,10.43
2023-03-10T23:30:29.478Z,11.43
2023-03-10T23:32:57.318Z,12.82
2023-03-10T23:35:27.933Z,11.25
2023-03-10T23:37:55.432Z,15.13
2023-03-10T23:40:24.763Z,11.13
2023-03-10T23:42:52.174Z,8.93
2023-03-10T23:45:21.481Z,12.55
2023-03-10T23:47:49.703Z,12.93
2023-03-10T23:50:26.296Z,10.45
2023-03-10T23:52:53.952Z,7.88
2023-03-10T23:55:27.118Z,12.68
2023-03-10T23:57:54.438Z,11.32
